Time;durP1;ratioP1;P1;durP2;ratioP2;P2;SDS_P1;SDS_P2;PMS_P1;PMS_P2;Temp;Humidity;BMP_temperature;BMP_pressure;BME280_temperature;BME280_humidity;BME280_pressure;Samples;Min_cycle;Max_cycle;Signal;HPM_P1;HPM_P2
2022/07/30 00:01:05;;;;;;;6.62;4.03;;;;;;;22.80;61.13;100086.19;1710070;82;20967;-75
2022/07/30 00:03:33;;;;;;;6.72;4.12;;;;;;;22.71;61.42;100084.37;1703675;82;21002;-74
2022/07/30 00:06:00;;;;;;;6.62;4.20;;;;;;;22.65;61.45;100091.29;1709785;82;21101;-74
2022/07/30 00:08:27;;;;;;;5.65;4.83;;;;;;;22.62;61.59;100085.83;1709749;82;21046;-73
2022/07/30 00:10:53;;;;;;;8.70;4.78;;;;;;;22.57;61.77;100082.47;1716363;82;21130;-73
2022/07/30 00:13:20;;;;;;;7.25;5.42;;;;;;;22.53;61.92;100086.72;1710900;82;21113;-74
2022/07/30 00:15:47;;;;;;;4.83;4.05;;;;;;;22.48;62.09;100085.25;1702956;82;21026;-73
2022/07/30 00:18:13;;;;;;;5.10;4.40;;;;;;;22.44;62.15;100079.20;1703647;82;21047;-72
2022/07/30 00:20:40;;;;;;;6.17;4.40;;;;;;;22.41;62.27;100080.52;1712702;82;21029;-72
2022/07/30 00:23:08;;;;;;;8.48;4.50;;;;;;;22.35;62.53;100075.52;1711589;82;21541;-73
2022/07/30 00:25:35;;;;;;;6.37;4.30;;;;;;;22.31;62.63;100067.59;1701193;82;21011;-76
2022/07/30 00:28:03;;;;;;;7.87;4.30;;;;;;;22.27;62.82;100062.36;1721972;81;21058;-77
2022/07/30 00:30:29;;;;;;;6.58;4.05;;;;;;;22.24;63.23;100064.14;1725795;81;21069;-75
2022/07/30 00:32:57;;;;;;;7.35;4.25;;;;;;;22.20;63.46;100065.68;1725726;81;21057;-74
2022/07/30 00:35:24;;;;;;;6.65;5.28;;;;;;;22.15;63.46;100069.08;1722919;81;21214;-75
2022/07/30 00:37:50;;;;;;;5.60;4.70;;;;;;;22.12;63.54;100064.16;1724293;81;21090;-76
2022/07/30 00:40:18;;;;;;;5.90;4.70;;;;;;;22.10;63.85;100068.17;1727116;82;21463;-74
2022/07/30 00:42:46;;;;;;;6.22;5.20;;;;;;;22.03;64.16;100068.27;1726647;81;21041;-73
2022/07/30 00:45:14;;;;;;;6.50;4.78;;;;;;;21.98;64.23;100064.93;1718304;81;21037;-74
2022/07/30 00:47:42;;;;;;;5.75;4.80;;;;;;;21.93;64.38;100063.45;1724956;83;21806;-74
2022/07/30 00:50:11;;;;;;;8.10;4.00;;;;;;;21.90;64.84;100069.31;1726035;81;21024;-76
2022/07/30 00:52:39;;;;;;;5.37;4.40;;;;;;;21.85;65.02;100067.05;1720542;81;21052;-75
2022/07/30 00:55:08;;;;;;;7.97;4.90;;;;;;;21.80;65.38;100060.98;1727045;81;21105;-77
2022/07/30 00:57:35;;;;;;;5.10;4.60;;;;;;;21.75;65.39;100063.04;1728783;81;21024;-74
2022/07/30 01:00:07;;;;;;;6.22;4.60;;;;;;;21.70;65.58;100058.85;1721866;81;21089;-76
2022/07/30 01:02:34;;;;;;;7.12;4.30;;;;;;;21.65;65.66;100061.42;1719964;81;21120;-76
2022/07/30 01:05:01;;;;;;;6.58;4.50;;;;;;;21.63;65.77;100063.53;1708100;81;21109;-76
2022/07/30 01:07:27;;;;;;;6.87;4.42;;;;;;;21.59;65.85;100057.80;1720243;81;21010;-77
2022/07/30 01:09:55;;;;;;;7.03;4.20;;;;;;;21.57;66.39;100055.02;1724207;81;21526;-75
2022/07/30 01:12:24;;;;;;;6.92;4.78;;;;;;;21.52;66.20;100048.16;1725736;81;21736;-73
2022/07/30 01:14:54;;;;;;;5.80;4.67;;;;;;;21.51;66.55;100046.49;1722560;83;21049;-73
2022/07/30 01:17:21;;;;;;;5.47;4.35;;;;;;;21.47;66.65;100046.66;1719809;81;21085;-75
2022/07/30 01:19:47;;;;;;;5.62;4.92;;;;;;;21.47;66.65;100041.26;1724826;81;21014;-76
2022/07/30 01:22:29;;;;;;;4.75;4.20;;;;;;;21.48;66.73;100039.68;1713051;81;21069;-77
2022/07/30 01:25:32;;;;;;;5.00;4.40;;;;;;;21.49;66.87;100041.84;1710507;83;20946;-74
2022/07/30 01:28:05;;;;;;;6.80;4.60;;;;;;;21.49;66.83;100037.80;1727265;81;21578;-72
2022/07/30 01:30:35;;;;;;;5.55;4.80;;;;;;;21.48;66.97;100035.62;1713690;81;21026;-74
2022/07/30 01:33:02;;;;;;;7.47;4.67;;;;;;;21.48;67.06;100038.33;1692317;82;20984;-76
2022/07/30 01:35:31;;;;;;;6.72;4.15;;;;;;;21.47;66.99;100035.85;1726777;81;21018;-77
2022/07/30 01:37:59;;;;;;;5.95;4.60;;;;;;;21.46;67.00;100040.45;1724459;81;22129;-77
2022/07/30 01:40:27;;;;;;;5.42;4.90;;;;;;;21.43;66.89;100033.30;1724082;81;21256;-73
2022/07/30 01:42:58;;;;;;;6.12;4.12;;;;;;;21.41;66.92;100034.33;1721851;81;21170;-74
2022/07/30 01:45:28;;;;;;;6.75;4.60;;;;;;;21.45;67.01;100041.48;1709517;81;21085;-75
2022/07/30 01:47:59;;;;;;;6.90;4.83;;;;;;;21.45;67.06;100032.56;1729298;81;21025;-74
2022/07/30 01:50:27;;;;;;;7.22;5.12;;;;;;;21.43;67.08;100026.53;1727545;82;21057;-74
2022/07/30 01:52:55;;;;;;;7.12;4.65;;;;;;;21.43;67.20;100027.89;1721500;81;21051;-75
2022/07/30 01:55:29;;;;;;;7.87;4.72;;;;;;;21.41;66.98;100028.11;1725272;83;21503;-77
2022/07/30 01:57:56;;;;;;;8.15;5.20;;;;;;;21.42;66.86;100024.34;1710831;81;21096;-77
2022/07/30 02:00:26;;;;;;;7.58;4.65;;;;;;;21.41;66.79;100022.17;1712785;81;21044;-78
2022/07/30 02:02:53;;;;;;;8.20;4.37;;;;;;;21.42;66.76;100025.69;1708526;82;21139;-77
2022/07/30 02:05:20;;;;;;;6.25;4.72;;;;;;;21.42;66.76;100024.34;1710938;81;21502;-78
2022/07/30 02:08:00;;;;;;;7.65;4.97;;;;;;;21.42;66.71;100024.34;1671757;83;21116;-75
2022/07/30 02:10:37;;;;;;;5.75;4.67;;;;;;;21.41;66.55;100026.77;1675060;85;21082;-79
2022/07/30 02:13:06;;;;;;;4.87;4.37;;;;;;;21.43;66.58;100026.53;1673032;84;21530;-76
2022/07/30 02:15:45;;;;;;;4.50;4.10;;;;;;;21.38;66.69;100024.52;1672985;84;21049;-77
2022/07/30 02:18:20;;;;;;;7.03;4.55;;;;;;;21.37;66.40;100032.34;1665183;84;21625;-77
2022/07/30 02:21:02;;;;;;;5.97;4.60;;;;;;;21.36;66.48;100030.68;1674441;85;21054;-76
2022/07/30 02:23:32;;;;;;;5.65;4.80;;;;;;;21.33;66.42;100028.45;1674944;84;21031;-76
2022/07/30 02:26:00;;;;;;;6.35;4.72;;;;;;;21.31;66.49;100024.63;1675545;84;21090;-78
2022/07/30 02:28:29;;;;;;;7.87;4.37;;;;;;;21.30;66.55;100018.91;1671528;84;21039;-79
2022/07/30 02:30:58;;;;;;;10.00;4.42;;;;;;;21.30;66.67;100025.67;1710097;83;21037;-78
2022/07/30 02:33:32;;;;;;;4.75;4.25;;;;;;;21.28;66.75;100029.14;1717666;82;21093;-77
2022/07/30 02:36:00;;;;;;;6.97;5.30;;;;;;;21.26;66.71;100036.65;1698758;83;20990;-77
2022/07/30 02:38:29;;;;;;;4.87;4.35;;;;;;;21.26;66.69;100038.00;1721224;82;21032;-76
2022/07/30 02:40:57;;;;;;;6.83;4.33;;;;;;;21.25;66.67;100043.63;1697845;82;22000;-77
2022/07/30 02:43:25;;;;;;;6.35;5.50;;;;;;;21.25;66.76;100039.08;1711731;82;21010;-76
2022/07/30 02:45:52;;;;;;;7.00;4.70;;;;;;;21.26;66.76;100042.05;1722707;82;21018;-75
2022/07/30 02:48:20;;;;;;;7.72;4.55;;;;;;;21.27;66.76;100039.66;1718887;82;21058;-77
2022/07/30 02:50:51;;;;;;;5.12;4.50;;;;;;;21.30;66.87;100045.13;1718106;81;21514;-77
2022/07/30 02:53:18;;;;;;;7.97;4.35;;;;;;;21.31;66.84;100039.49;1720184;82;21214;-75
2022/07/30 02:55:44;;;;;;;8.10;5.00;;;;;;;21.33;67.09;100038.73;1718522;82;21093;-75
2022/07/30 02:58:11;;;;;;;5.17;4.50;;;;;;;21.34;66.79;100043.09;1714495;82;21072;-77
2022/07/30 03:00:38;;;;;;;5.95;4.97;;;;;;;21.35;66.86;100041.20;1716916;82;21053;-75
2022/07/30 03:03:06;;;;;;;6.22;4.65;;;;;;;21.37;66.67;100036.39;1719822;82;21104;-75
2022/07/30 03:05:35;;;;;;;5.83;4.75;;;;;;;21.39;66.53;100041.85;1716124;82;21349;-77
2022/07/30 03:08:04;;;;;;;6.45;4.65;;;;;;;21.41;66.44;100045.14;1727947;82;21697;-76
2022/07/30 03:10:32;;;;;;;7.92;4.50;;;;;;;21.43;66.26;100040.86;1721087;82;21003;-77
2022/07/30 03:13:00;;;;;;;6.78;4.65;;;;;;;21.45;66.31;100046.08;1720996;82;21162;-78
2022/07/30 03:15:28;;;;;;;7.72;4.85;;;;;;;21.48;66.21;100044.23;1698324;82;21208;-77
2022/07/30 03:17:55;;;;;;;9.25;5.08;;;;;;;21.50;65.99;100046.18;1717136;82;21091;-77
2022/07/30 03:20:26;;;;;;;7.47;4.37;;;;;;;21.52;65.99;100047.62;1716343;82;21002;-77
2022/07/30 03:22:53;;;;;;;5.03;4.40;;;;;;;21.57;65.86;100045.02;1703834;82;21017;-77
2022/07/30 03:25:24;;;;;;;7.33;4.33;;;;;;;21.57;65.86;100045.02;1719587;82;21380;-78
2022/07/30 03:27:54;;;;;;;6.87;4.77;;;;;;;21.60;65.66;100045.91;1710551;82;21080;-76
2022/07/30 03:30:22;;;;;;;7.33;4.65;;;;;;;21.64;65.55;100053.03;1695792;82;21541;-77
2022/07/30 03:32:51;;;;;;;5.78;4.42;;;;;;;21.67;65.56;100051.73;1708767;82;21058;-76
2022/07/30 03:35:20;;;;;;;7.28;4.37;;;;;;;21.70;65.67;100052.09;1709515;82;21046;-76
2022/07/30 03:37:47;;;;;;;6.10;4.45;;;;;;;21.70;65.54;100045.33;1712399;82;21131;-75
2022/07/30 03:40:15;;;;;;;7.00;5.03;;;;;;;21.70;65.45;100045.33;1712318;82;20988;-76
2022/07/30 03:42:44;;;;;;;7.20;4.53;;;;;;;21.72;65.58;100049.16;1712831;82;21234;-74
2022/07/30 03:45:12;;;;;;;7.37;4.65;;;;;;;21.76;65.54;100046.28;1707130;82;21554;-75
2022/07/30 03:47:40;;;;;;;6.10;4.22;;;;;;;21.79;65.42;100042.59;1692774;83;21077;-75
2022/07/30 03:50:11;;;;;;;7.67;4.72;;;;;;;21.83;65.23;100048.34;1710027;82;21114;-76
2022/07/30 03:52:39;;;;;;;6.83;4.47;;;;;;;21.85;65.17;100046.77;1703572;82;21073;-78
2022/07/30 03:55:08;;;;;;;6.03;4.90;;;;;;;21.85;65.28;100041.36;1708906;82;21216;-76
2022/07/30 03:57:38;;;;;;;7.08;4.40;;;;;;;21.86;65.33;100042.99;1715004;82;21042;-76
2022/07/30 04:00:07;;;;;;;5.92;4.75;;;;;;;21.86;64.98;100044.34;1679412;84;21030;-77
2022/07/30 04:02:44;;;;;;;8.58;4.40;;;;;;;21.85;64.63;100046.77;1706469;81;21053;-75
2022/07/30 04:05:18;;;;;;;7.45;3.85;;;;;;;21.83;64.64;100045.64;1723281;82;21869;-76
2022/07/30 04:07:46;;;;;;;5.05;3.98;;;;;;;21.83;63.78;100040.74;1727116;82;21143;-77
2022/07/30 04:10:15;;;;;;;6.03;4.30;;;;;;;21.85;64.11;100048.13;1715814;82;20995;-77
2022/07/30 04:12:57;;;;;;;6.17;3.75;;;;;;;21.84;63.93;100041.87;1633898;82;26559;-76
2022/07/30 04:15:24;;;;;;;4.62;3.83;;;;;;;21.85;63.56;100043.53;1709199;82;21014;-76
2022/07/30 04:17:56;;;;;;;5.97;3.77;;;;;;;21.85;63.35;100046.23;1712342;82;21075;-76
2022/07/30 04:20:30;;;;;;;8.95;4.42;;;;;;;21.84;63.31;100042.41;1714301;82;21246;-75
2022/07/30 04:22:58;;;;;;;4.17;3.77;;;;;;;21.82;63.24;100041.82;1713405;82;21517;-76
2022/07/30 04:25:25;;;;;;;5.20;4.47;;;;;;;21.80;63.33;100042.05;1709872;82;21879;-78
2022/07/30 04:27:53;;;;;;;7.37;3.40;;;;;;;21.77;63.20;100046.59;1715626;82;21101;-75
2022/07/30 04:30:21;;;;;;;10.48;4.00;;;;;;;21.77;63.08;100043.89;1710770;81;21029;-75
2022/07/30 04:32:49;;;;;;;6.20;4.15;;;;;;;21.80;62.84;100042.86;1725825;81;21283;-75
2022/07/30 04:35:32;;;;;;;6.45;4.17;;;;;;;21.83;62.80;100044.30;1723204;81;21458;-77
2022/07/30 04:38:15;;;;;;;6.78;4.12;;;;;;;21.86;62.27;100037.58;1710919;81;21049;-75
2022/07/30 04:40:43;;;;;;;6.97;3.95;;;;;;;21.90;62.37;100037.40;1715231;81;21021;-74
2022/07/30 04:43:09;;;;;;;5.70;4.22;;;;;;;21.94;62.34;100032.66;1725153;81;21016;-74
2022/07/30 04:45:38;;;;;;;6.00;3.62;;;;;;;21.99;62.12;100031.40;1722399;81;21425;-74
2022/07/30 04:48:06;;;;;;;6.12;3.05;;;;;;;22.05;61.39;100039.10;1723632;81;21061;-76
2022/07/30 04:50:35;;;;;;;6.92;3.85;;;;;;;22.06;61.76;100036.70;1721496;81;21095;-75
2022/07/30 04:53:03;;;;;;;8.80;4.47;;;;;;;22.09;61.70;100040.27;1726524;81;21069;-77
2022/07/30 04:55:32;;;;;;;7.97;3.62;;;;;;;22.10;61.45;100033.00;1727088;82;21077;-75
2022/07/30 04:58:00;;;;;;;6.87;3.45;;;;;;;22.10;61.97;100027.59;1726384;81;21038;-74
2022/07/30 05:00:29;;;;;;;6.92;4.05;;;;;;;22.10;61.77;100022.99;1726021;81;21473;-76
2022/07/30 05:02:55;;;;;;;6.30;3.80;;;;;;;22.15;61.24;100029.03;1717574;81;21000;-73
2022/07/30 05:05:24;;;;;;;6.80;4.25;;;;;;;22.19;61.41;100031.05;1699107;82;21033;-77
2022/07/30 05:07:52;;;;;;;14.20;4.22;;;;;;;22.19;61.09;100026.98;1722640;81;21030;-77
2022/07/30 05:10:20;;;;;;;7.75;4.47;;;;;;;22.22;60.87;100023.52;1708672;82;21142;-76
2022/07/30 05:12:47;;;;;;;8.38;4.70;;;;;;;22.25;60.79;100034.72;1726638;82;21596;-77
2022/07/30 05:15:15;;;;;;;8.60;5.03;;;;;;;22.30;60.43;100027.22;1732784;81;21057;-75
2022/07/30 05:17:42;;;;;;;7.25;3.90;;;;;;;22.32;60.14;100035.39;1726551;81;21058;-76
2022/07/30 05:20:11;;;;;;;5.83;4.00;;;;;;;22.31;59.67;100036.97;1709172;83;21077;-76
2022/07/30 05:22:55;;;;;;;5.92;3.40;;;;;;;22.32;60.17;100034.03;1725473;82;21309;-77
2022/07/30 05:25:24;;;;;;;5.12;3.67;;;;;;;22.36;59.32;100041.15;1726389;81;21108;-75
2022/07/30 05:27:51;;;;;;;6.78;3.65;;;;;;;22.36;59.22;100043.86;1713306;81;21081;-76
2022/07/30 05:30:18;;;;;;;5.67;3.58;;;;;;;22.36;58.98;100041.97;1709778;81;21125;-76
2022/07/30 05:32:47;;;;;;;5.78;3.40;;;;;;;22.43;59.27;100054.56;1704681;82;21097;-76
2022/07/30 05:35:14;;;;;;;5.87;3.50;;;;;;;22.47;59.18;100051.13;1707308;82;21143;-74
2022/07/30 05:37:41;;;;;;;6.53;3.50;;;;;;;22.52;59.01;100051.25;1689057;83;21030;-75
2022/07/30 05:40:10;;;;;;;5.47;4.00;;;;;;;22.58;59.34;100055.70;1705217;82;21026;-76
2022/07/30 05:42:46;;;;;;;6.10;3.45;;;;;;;22.64;59.35;100052.56;1709528;83;21049;-75
2022/07/30 05:45:14;;;;;;;4.42;3.20;;;;;;;22.71;58.91;100055.94;1705710;82;21537;-75
2022/07/30 05:47:40;;;;;;;8.58;3.45;;;;;;;22.81;58.03;100059.38;1707189;83;21201;-78
2022/07/30 05:50:08;;;;;;;10.38;3.55;;;;;;;22.91;58.13;100060.95;1713042;82;21039;-77
2022/07/30 05:52:35;;;;;;;8.20;3.58;;;;;;;22.99;58.00;100057.03;1693184;82;21086;-76
2022/07/30 05:55:07;;;;;;;5.08;3.22;;;;;;;23.12;57.65;100062.19;1706002;82;21061;-77
2022/07/30 05:57:36;;;;;;;6.78;3.45;;;;;;;23.28;57.44;100059.75;1703365;82;21010;-77
2022/07/30 06:00:09;;;;;;;5.17;3.20;;;;;;;23.44;57.20;100056.22;1713752;82;21970;-79
2022/07/30 06:02:47;;;;;;;5.20;3.27;;;;;;;23.59;56.92;100058.38;1704205;82;21109;-78
2022/07/30 06:05:23;;;;;;;4.47;3.20;;;;;;;23.72;56.06;100054.48;1701381;82;20994;-77
2022/07/30 06:07:51;;;;;;;4.50;2.83;;;;;;;23.82;55.94;100055.23;1712670;82;21144;-77
2022/07/30 06:10:21;;;;;;;4.28;3.15;;;;;;;23.90;55.50;100056.17;1690834;82;21101;-77
2022/07/30 06:12:49;;;;;;;4.47;3.00;;;;;;;23.96;55.48;100057.07;1714999;82;21155;-77
2022/07/30 06:15:17;;;;;;;4.50;3.02;;;;;;;23.98;54.88;100058.45;1705373;83;21065;-76
2022/07/30 06:17:46;;;;;;;4.83;3.00;;;;;;;23.93;55.05;100051.07;1700424;83;21046;-78
2022/07/30 06:20:24;;;;;;;6.20;3.55;;;;;;;23.93;55.17;100052.94;1706533;82;21498;-77
2022/07/30 06:22:56;;;;;;;5.50;3.08;;;;;;;24.00;54.95;100054.14;1702763;82;21007;-77
2022/07/30 06:25:24;;;;;;;6.42;2.75;;;;;;;24.10;54.67;100044.78;1690535;82;21938;-76
2022/07/30 06:27:51;;;;;;;4.42;2.98;;;;;;;24.21;54.36;100049.83;1694046;82;21018;-79
2022/07/30 06:30:18;;;;;;;6.08;2.90;;;;;;;24.30;54.17;100045.61;1712212;83;21522;-75
2022/07/30 06:32:46;;;;;;;3.52;2.95;;;;;;;24.40;54.02;100044.37;1726722;81;21062;-78
2022/07/30 06:35:13;;;;;;;4.78;2.70;;;;;;;24.48;53.97;100041.21;1709905;83;21033;-78
2022/07/30 06:37:44;;;;;;;6.80;2.80;;;;;;;24.55;53.60;100042.42;1726461;82;21511;-77
2022/07/30 06:40:12;;;;;;;6.17;2.87;;;;;;;24.65;53.34;100043.89;1726208;81;21514;-77
2022/07/30 06:42:56;;;;;;;5.28;3.05;;;;;;;24.74;53.24;100037.45;1680762;85;21105;-79
2022/07/30 06:45:36;;;;;;;4.62;3.30;;;;;;;24.81;52.94;100038.63;1665633;84;21071;-79
2022/07/30 06:48:06;;;;;;;7.72;3.17;;;;;;;24.89;53.00;100044.97;1657816;84;21062;-74
2022/07/30 06:50:35;;;;;;;5.42;3.65;;;;;;;24.97;52.78;100035.53;1673889;84;21099;-77
2022/07/30 06:53:04;;;;;;;3.70;3.02;;;;;;;25.04;52.65;100038.88;1669482;84;21007;-77
2022/07/30 06:55:32;;;;;;;3.58;2.85;;;;;;;25.11;52.30;100031.31;1671286;85;21078;-77
2022/07/30 06:58:02;;;;;;;4.53;3.27;;;;;;;25.12;51.84;100037.05;1669799;84;21634;-78
2022/07/30 07:00:41;;;;;;;5.45;2.90;;;;;;;25.10;51.08;100045.45;1618560;86;21655;-74
2022/07/30 07:03:11;;;;;;;7.00;3.92;;;;;;;25.08;51.36;100043.53;1662105;84;21519;-74
2022/07/30 07:05:37;;;;;;;5.22;3.60;;;;;;;25.07;51.65;100048.70;1669184;84;21572;-74
2022/07/30 07:08:04;;;;;;;4.60;2.72;;;;;;;25.10;51.74;100048.17;1677755;84;21058;-75
2022/07/30 07:10:32;;;;;;;4.35;3.08;;;;;;;25.15;51.15;100041.13;1671431;84;21141;-73
2022/07/30 07:13:05;;;;;;;3.67;2.80;;;;;;;25.15;50.94;100037.06;1664098;84;21127;-74
2022/07/30 07:15:32;;;;;;;5.60;3.15;;;;;;;25.12;51.37;100037.05;1691894;83;21089;-75
2022/07/30 07:18:00;;;;;;;2.85;2.55;;;;;;;25.11;51.38;100029.44;1654174;85;21040;-74
2022/07/30 07:20:29;;;;;;;3.52;2.67;;;;;;;25.14;51.04;100034.08;1667549;84;21062;-74
2022/07/30 07:22:59;;;;;;;4.35;2.87;;;;;;;25.15;51.11;100035.70;1669089;85;21086;-72
2022/07/30 07:25:25;;;;;;;5.87;3.15;;;;;;;25.16;51.13;100036.81;1643486;85;21539;-74
2022/07/30 07:27:54;;;;;;;3.55;3.12;;;;;;;25.20;51.17;100028.41;1662208;84;21562;-75
2022/07/30 07:30:21;;;;;;;5.17;2.90;;;;;;;25.23;51.17;100029.30;1671627;85;21031;-74
2022/07/30 07:32:47;;;;;;;9.15;3.42;;;;;;;25.28;50.86;100023.92;1716144;83;21619;-74
2022/07/30 07:35:16;;;;;;;7.78;3.10;;;;;;;25.34;50.32;100028.83;1719363;82;21077;-73
2022/07/30 07:37:46;;;;;;;4.65;2.67;;;;;;;25.43;50.20;100028.64;1711242;82;21569;-74
2022/07/30 07:40:16;;;;;;;4.90;2.55;;;;;;;25.52;49.74;100027.64;1717230;81;21037;-74
2022/07/30 07:42:42;;;;;;;4.33;3.10;;;;;;;25.55;49.53;100024.38;1719656;81;20983;-74
2022/07/30 07:45:11;;;;;;;4.60;3.30;;;;;;;25.61;49.44;100020.64;1724273;81;21017;-75
2022/07/30 07:47:48;;;;;;;5.17;3.00;;;;;;;25.70;48.96;100029.94;1710752;83;21528;-75
2022/07/30 07:50:17;;;;;;;4.97;3.05;;;;;;;25.76;48.83;100034.06;1722319;82;21486;-74
2022/07/30 07:52:46;;;;;;;3.40;2.90;;;;;;;25.78;48.65;100039.52;1718639;82;21134;-74
2022/07/30 07:55:12;;;;;;;4.60;2.92;;;;;;;25.78;48.93;100019.66;1718850;82;21035;-74
2022/07/30 07:57:40;;;;;;;8.18;3.17;;;;;;;25.82;48.95;100033.82;1721850;81;21012;-76
2022/07/30 08:00:09;;;;;;;7.75;3.40;;;;;;;25.85;48.77;100031.95;1725737;81;21098;-77
2022/07/30 08:02:39;;;;;;;4.25;2.87;;;;;;;25.87;48.94;100031.14;1720081;81;21046;-76
2022/07/30 08:05:09;;;;;;;3.65;2.52;;;;;;;25.90;48.86;100013.45;1721511;82;21176;-76
2022/07/30 08:07:43;;;;;;;4.30;2.67;;;;;;;25.95;48.96;100018.97;1692840;83;21061;-77
2022/07/30 08:10:29;;;;;;;3.58;3.10;;;;;;;26.03;48.94;100015.75;1713319;83;20994;-76
2022/07/30 08:13:02;;;;;;;3.52;3.17;;;;;;;26.10;48.90;100008.72;1720941;83;21053;-77
2022/07/30 08:15:33;;;;;;;5.65;3.25;;;;;;;26.17;49.24;100009.83;1716585;82;21163;-77
2022/07/30 08:18:04;;;;;;;4.42;3.75;;;;;;;26.25;48.96;100007.95;1714017;82;22084;-76
2022/07/30 08:20:40;;;;;;;4.30;3.70;;;;;;;26.37;48.56;100005.03;1723302;83;21022;-76
2022/07/30 08:23:07;;;;;;;6.03;3.40;;;;;;;26.45;48.11;100003.95;1720702;82;21022;-75
2022/07/30 08:25:33;;;;;;;5.45;3.20;;;;;;;26.51;48.17;99996.62;1726301;80;21011;-77
2022/07/30 08:28:02;;;;;;;3.47;3.17;;;;;;;26.60;48.14;99992.33;1726959;81;21530;-77
2022/07/30 08:30:30;;;;;;;4.08;2.72;;;;;;;26.73;48.11;99991.53;1719059;83;22049;-76
2022/07/30 08:32:57;;;;;;;5.53;3.37;;;;;;;26.91;47.74;99985.58;1722815;82;21002;-76
2022/07/30 08:35:24;;;;;;;4.67;3.37;;;;;;;27.10;47.39;99985.87;1725478;81;21006;-77
2022/07/30 08:37:50;;;;;;;5.15;4.62;;;;;;;27.23;47.09;99984.50;1718777;83;21569;-75
2022/07/30 08:40:19;;;;;;;3.77;3.08;;;;;;;27.39;47.26;99979.36;1726331;81;21132;-77
2022/07/30 08:42:53;;;;;;;4.28;3.08;;;;;;;27.64;46.79;99973.56;1725382;82;21613;-79
2022/07/30 08:45:21;;;;;;;3.12;2.83;;;;;;;27.90;46.53;99973.00;1724210;81;21620;-77
2022/07/30 08:47:49;;;;;;;4.87;3.05;;;;;;;28.14;45.45;99971.00;1726540;82;21096;-76
2022/07/30 08:50:25;;;;;;;6.33;3.45;;;;;;;28.28;44.78;99964.38;1720067;82;21052;-77
2022/07/30 08:53:03;;;;;;;4.37;3.17;;;;;;;28.32;44.73;99962.72;1725106;81;21049;-74
2022/07/30 08:55:30;;;;;;;3.87;3.47;;;;;;;28.33;44.64;99958.34;1726639;81;21242;-78
2022/07/30 08:57:58;;;;;;;6.53;3.40;;;;;;;28.38;44.75;99962.98;1721701;81;21085;-78
2022/07/30 09:00:27;;;;;;;7.62;3.67;;;;;;;28.49;45.38;99958.27;1725522;82;21002;-78
2022/07/30 09:02:55;;;;;;;3.52;3.02;;;;;;;28.72;44.72;99949.95;1703315;82;21050;-79
2022/07/30 09:05:23;;;;;;;3.40;3.10;;;;;;;28.93;44.51;99959.64;1733950;82;21084;-78
2022/07/30 09:07:50;;;;;;;4.70;3.30;;;;;;;29.17;43.89;99939.81;1726504;82;22211;-79
2022/07/30 09:10:18;;;;;;;4.35;3.95;;;;;;;29.35;43.85;99939.64;1726349;82;21053;-80
2022/07/30 09:12:45;;;;;;;6.35;3.30;;;;;;;29.57;43.54;99942.70;1677650;83;21601;-78
2022/07/30 09:15:17;;;;;;;5.70;2.90;;;;;;;29.73;43.70;99956.27;1726082;81;21045;-78
2022/07/30 09:17:56;;;;;;;3.00;2.77;;;;;;;29.96;43.03;99940.91;1726655;83;21081;-80
2022/07/30 09:20:32;;;;;;;3.72;2.95;;;;;;;30.21;42.03;99939.80;1696047;83;21053;-81
2022/07/30 09:23:03;;;;;;;4.78;3.33;;;;;;;30.33;41.36;99948.98;1726097;81;20990;-80
2022/07/30 09:25:48;;;;;;;6.85;3.30;;;;;;;30.24;41.37;99941.94;1730305;81;21081;-79
2022/07/30 09:28:33;;;;;;;6.75;3.30;;;;;;;30.38;41.73;99942.88;1730575;81;20963;-80
2022/07/30 09:31:03;;;;;;;3.60;2.83;;;;;;;30.91;41.17;99939.66;1715340;82;21115;-77
2022/07/30 09:33:48;;;;;;;4.58;2.75;;;;;;;31.54;40.02;99932.27;1712380;82;21222;-80
2022/07/30 09:36:34;;;;;;;5.55;3.02;;;;;;;32.15;39.28;99937.66;1693295;83;21094;-80
2022/07/30 09:39:37;;;;;;;4.20;3.00;;;;;;;32.63;38.89;99942.67;1705899;82;21387;-79
2022/07/30 09:42:23;;;;;;;5.58;3.45;;;;;;;33.12;37.58;99929.69;1709450;82;21037;-79
2022/07/30 09:45:05;;;;;;;3.83;3.20;;;;;;;33.05;37.94;99934.22;1713377;82;21054;-80
2022/07/30 09:47:36;;;;;;;3.70;3.27;;;;;;;33.18;38.24;99932.55;1694166;82;21189;-80
2022/07/30 09:50:12;;;;;;;5.45;3.60;;;;;;;33.33;38.15;99929.41;1705954;82;21090;-81
2022/07/30 09:52:41;;;;;;;4.15;3.55;;;;;;;33.35;38.25;99925.77;1706593;82;21624;-80
2022/07/30 09:55:09;;;;;;;3.40;3.10;;;;;;;33.30;38.44;99929.48;1702773;83;21046;-80
2022/07/30 09:57:59;;;;;;;5.58;3.30;;;;;;;33.42;38.37;99925.33;1709712;82;21103;-79
2022/07/30 10:00:29;;;;;;;4.12;3.55;;;;;;;33.44;38.09;99936.84;1710504;82;21186;-82
2022/07/30 10:03:18;;;;;;;4.62;3.12;;;;;;;33.43;38.18;99931.07;1707769;82;21550;-78
2022/07/30 10:06:05;;;;;;;3.42;3.05;;;;;;;33.57;37.42;99933.72;1712456;82;21084;-79
2022/07/30 10:08:49;;;;;;;4.65;3.00;;;;;;;33.57;37.35;99928.21;1706800;83;21057;-80
2022/07/30 10:11:21;;;;;;;3.92;3.30;;;;;;;33.71;36.88;99930.34;1712978;82;21070;-82
2022/07/30 10:13:54;;;;;;;3.77;3.40;;;;;;;33.80;36.88;99929.78;1700014;82;21045;-81
2022/07/30 10:16:24;;;;;;;6.22;3.42;;;;;;;33.75;37.25;99926.39;1711108;82;21073;-83
2022/07/30 10:18:55;;;;;;;5.42;3.12;;;;;;;33.79;37.33;99931.50;1702268;82;21070;-80
2022/07/30 10:21:22;;;;;;;3.47;3.17;;;;;;;33.96;36.84;99933.47;1713238;82;21081;-80
2022/07/30 10:24:09;;;;;;;4.92;3.15;;;;;;;34.04;36.48;99936.84;1709648;82;21073;-80
2022/07/30 10:26:47;;;;;;;4.97;3.02;;;;;;;34.14;36.20;99936.52;1706173;82;21053;-77
2022/07/30 10:29:34;;;;;;;4.87;3.10;;;;;;;34.17;35.79;99926.27;1711868;82;21722;-80
2022/07/30 10:32:00;;;;;;;4.85;3.00;;;;;;;34.25;36.20;99917.77;1671261;82;20999;-79
2022/07/30 10:34:29;;;;;;;5.55;2.98;;;;;;;34.71;35.88;99916.90;1724656;82;21046;-80
2022/07/30 10:36:59;;;;;;;5.75;3.02;;;;;;;35.15;35.35;99910.73;1725758;82;21075;-77
2022/07/30 10:39:48;;;;;;;4.92;3.10;;;;;;;35.53;35.24;99912.75;1715371;83;21927;-80
2022/07/30 10:46:05;;;;;;;3.90;3.52;;;;;;;36.19;34.36;99918.59;1831670;77;22635;-78
2022/07/30 10:48:33;;;;;;;8.20;3.42;;;;;;;36.31;34.03;99910.14;1810556;76;21077;-79
2022/07/30 10:51:00;;;;;;;3.75;2.95;;;;;;;36.18;34.47;99902.34;1819992;76;21209;-79
2022/07/30 10:53:47;;;;;;;7.33;3.70;;;;;;;36.31;34.63;99909.55;1806023;77;21085;-78
2022/07/30 10:56:23;;;;;;;4.92;3.22;;;;;;;36.58;34.55;99921.22;1827134;78;21036;-78
2022/07/30 10:59:08;;;;;;;5.08;3.17;;;;;;;37.11;33.89;99913.27;1824859;76;21044;-78
2022/07/30 11:01:54;;;;;;;6.60;3.25;;;;;;;37.55;33.45;99918.55;1829054;76;21029;-78
2022/07/30 11:04:27;;;;;;;4.45;3.40;;;;;;;38.09;32.95;99905.61;1823251;77;21135;-78
2022/07/30 11:07:23;;;;;;;3.47;2.83;;;;;;;38.75;32.42;99896.06;1821980;76;20981;-78
2022/07/30 11:09:56;;;;;;;3.95;3.22;;;;;;;39.29;31.09;99908.03;1819917;76;21016;-79
2022/07/30 11:12:46;;;;;;;3.47;3.20;;;;;;;39.11;30.52;99892.27;1811664;78;21063;-80
2022/07/30 11:15:14;;;;;;;4.15;3.55;;;;;;;38.64;31.07;99894.37;1820832;78;21017;-78
2022/07/30 11:18:03;;;;;;;3.77;3.27;;;;;;;37.88;31.72;99893.25;1824903;76;21093;-77
2022/07/30 11:20:31;;;;;;;5.10;3.22;;;;;;;37.35;32.26;99888.97;1826093;78;21588;-79
2022/07/30 11:23:26;;;;;;;3.92;3.30;;;;;;;36.98;32.80;99886.91;1829988;78;21022;-79
2022/07/30 11:25:52;;;;;;;4.55;2.95;;;;;;;37.09;33.55;99894.77;1826287;76;21565;-78
2022/07/30 11:28:43;;;;;;;3.33;3.02;;;;;;;37.58;33.35;99881.81;1820762;76;21080;-80
2022/07/30 11:31:30;;;;;;;4.30;3.47;;;;;;;38.25;32.88;99887.65;1830102;78;21120;-79
2022/07/30 11:34:22;;;;;;;4.58;3.30;;;;;;;39.14;32.06;99886.61;1819175;78;21525;-78
2022/07/30 11:37:15;;;;;;;;;;;;;;;39.82;30.79;99891.05;1824905;76;21057;-79
2022/07/30 11:39:59;;;;;;;5.25;3.52;;;;;;;40.25;30.07;99878.69;1833084;77;20169;-77
2022/07/30 11:42:31;;;;;;;4.53;3.45;;;;;;;39.74;30.24;99876.77;1811866;78;21049;-77
2022/07/30 11:45:18;;;;;;;6.95;3.70;;;;;;;39.00;31.16;99884.83;1833789;77;21104;-79
2022/07/30 11:47:49;;;;;;;6.03;3.98;;;;;;;38.46;31.60;99884.13;1813148;78;21054;-78
2022/07/30 11:50:28;;;;;;;4.87;3.67;;;;;;;37.57;32.10;99876.61;1824475;78;21051;-77